Time;durP1;ratioP1;P1;durP2;ratioP2;P2;SDS_P1;SDS_P2;PMS_P1;PMS_P2;Temp;Humidity;BMP_temperature;BMP_pressure;BME280_temperature;BME280_humidity;BME280_pressure;Samples;Min_cycle;Max_cycle;Signal;HPM_P1;HPM_P2
2023/12/23 00:01:23;;;;;;;5.90;2.03;;;9.10;99.90;;;;;;5062134;28;20029;-84
2023/12/23 00:03:49;;;;;;;7.78;2.13;;;9.00;99.90;;;;;;5064789;28;20056;-83
2023/12/23 00:06:15;;;;;;;7.57;1.70;;;9.00;99.90;;;;;;5065245;28;20081;-82
2023/12/23 00:08:41;;;;;;;6.07;1.65;;;9.00;99.90;;;;;;5069867;28;20028;-82
2023/12/23 00:11:06;;;;;;;6.38;1.60;;;9.00;99.90;;;;;;5078872;28;20477;-82
2023/12/23 00:13:32;;;;;;;11.55;2.00;;;9.00;99.90;;;;;;5072136;28;20033;-82
2023/12/23 00:15:59;;;;;;;7.05;1.70;;;9.00;99.90;;;;;;5075151;28;20074;-83
2023/12/23 00:18:24;;;;;;;6.65;1.80;;;8.90;99.90;;;;;;5070954;28;20311;-83
2023/12/23 00:20:50;;;;;;;9.38;1.80;;;8.90;99.90;;;;;;5060542;28;20124;-83
2023/12/23 00:23:16;;;;;;;7.05;1.95;;;8.90;99.90;;;;;;5062089;28;20052;-82
2023/12/23 00:25:41;;;;;;;8.93;2.05;;;8.90;99.90;;;;;;5060900;28;20025;-82
2023/12/23 00:28:07;;;;;;;6.40;1.80;;;8.90;99.90;;;;;;5061919;28;20028;-83
2023/12/23 00:30:33;;;;;;;8.52;1.80;;;9.00;99.90;;;;;;5056379;28;20059;-82
2023/12/23 00:32:58;;;;;;;5.15;1.42;;;9.00;99.90;;;;;;5059453;28;20024;-82
2023/12/23 00:35:26;;;;;;;4.75;1.50;;;9.00;99.90;;;;;;5055329;28;20077;-83
2023/12/23 00:37:52;;;;;;;5.57;1.48;;;8.90;99.90;;;;;;5057408;28;20021;-82
2023/12/23 00:40:18;;;;;;;5.18;1.50;;;8.90;99.90;;;;;;5058065;28;20052;-82
2023/12/23 00:42:44;;;;;;;8.18;1.67;;;8.80;99.90;;;;;;5055198;28;20039;-83
2023/12/23 00:45:09;;;;;;;6.88;1.67;;;8.90;99.90;;;;;;5054146;28;20056;-83
2023/12/23 00:47:35;;;;;;;7.18;1.60;;;8.80;99.90;;;;;;5053998;28;20404;-82
2023/12/23 00:50:01;;;;;;;4.03;1.40;;;8.80;99.90;;;;;;5054331;28;20430;-83
2023/12/23 00:52:28;;;;;;;5.55;1.58;;;8.80;99.90;;;;;;5062367;28;20032;-83
2023/12/23 00:54:54;;;;;;;4.05;1.50;;;8.70;99.90;;;;;;5061821;28;20545;-82
2023/12/23 00:57:20;;;;;;;5.78;1.40;;;8.70;99.90;;;;;;5059423;28;20033;-82
2023/12/23 00:59:46;;;;;;;9.25;1.73;;;8.70;99.90;;;;;;5056959;28;20224;-82
2023/12/23 01:02:12;;;;;;;6.63;1.67;;;8.70;99.90;;;;;;5054891;28;20119;-83
2023/12/23 01:04:38;;;;;;;5.65;1.40;;;8.70;99.90;;;;;;5070951;28;20258;-82
2023/12/23 01:07:03;;;;;;;8.32;1.80;;;8.70;99.90;;;;;;5083523;28;20024;-81
2023/12/23 01:09:30;;;;;;;10.75;1.85;;;8.70;99.90;;;;;;5081858;28;20046;-82
2023/12/23 01:11:55;;;;;;;5.70;1.90;;;8.70;99.90;;;;;;5083601;28;20036;-83
2023/12/23 01:14:21;;;;;;;8.57;1.95;;;8.70;99.90;;;;;;5066043;28;20121;-82
2023/12/23 01:16:47;;;;;;;10.80;1.70;;;8.70;99.90;;;;;;5061936;28;20039;-81
2023/12/23 01:19:12;;;;;;;9.20;1.52;;;8.70;99.90;;;;;;5060684;28;20044;-81
2023/12/23 01:21:38;;;;;;;10.27;1.73;;;8.80;99.90;;;;;;5063117;28;20067;-81
2023/12/23 01:24:04;;;;;;;6.97;1.42;;;8.80;99.90;;;;;;5063112;28;20036;-82
2023/12/23 01:26:30;;;;;;;5.88;1.60;;;8.90;99.90;;;;;;5065263;28;20032;-82
2023/12/23 01:29:00;;;;;;;5.50;1.98;;;8.80;99.90;;;;;;5062167;28;20384;-82
2023/12/23 01:31:27;;;;;;;10.38;1.80;;;8.90;99.90;;;;;;5057025;28;20036;-82
2023/12/23 01:33:53;;;;;;;4.35;1.42;;;8.90;99.90;;;;;;5063175;28;20050;-82
2023/12/23 01:36:18;;;;;;;8.25;2.17;;;9.00;99.90;;;;;;5063540;28;20028;-82
2023/12/23 01:38:44;;;;;;;10.48;1.50;;;9.00;99.90;;;;;;5056838;28;20032;-81
2023/12/23 01:41:10;;;;;;;4.97;1.70;;;9.00;99.90;;;;;;5060851;28;20420;-81
2023/12/23 01:43:35;;;;;;;3.97;1.38;;;9.00;99.90;;;;;;5065575;28;20111;-81
2023/12/23 01:46:02;;;;;;;9.95;1.75;;;9.10;99.90;;;;;;5062713;28;20496;-81
2023/12/23 01:48:29;;;;;;;6.68;1.90;;;9.10;99.90;;;;;;5063854;28;20021;-82
2023/12/23 01:50:56;;;;;;;8.43;1.67;;;9.10;99.90;;;;;;5058796;28;20055;-81
2023/12/23 01:53:22;;;;;;;6.22;1.60;;;9.10;99.90;;;;;;5067100;28;20032;-81
2023/12/23 01:55:49;;;;;;;5.57;1.73;;;9.10;99.90;;;;;;5062110;28;20311;-81
2023/12/23 01:58:15;;;;;;;7.65;1.30;;;9.10;99.90;;;;;;5065031;28;20028;-81
2023/12/23 02:00:41;;;;;;;4.55;1.30;;;9.10;99.90;;;;;;5061371;28;20028;-83
2023/12/23 02:03:07;;;;;;;4.93;1.25;;;9.20;99.90;;;;;;5066097;28;20036;-83
2023/12/23 02:05:33;;;;;;;4.78;1.40;;;9.10;99.90;;;;;;5063081;28;20436;-82
2023/12/23 02:07:59;;;;;;;4.10;1.45;;;9.20;99.90;;;;;;5065226;28;20031;-82
2023/12/23 02:10:25;;;;;;;6.78;1.67;;;9.20;99.90;;;;;;5064457;28;20037;-83
2023/12/23 02:13:27;;;;;;;6.65;1.73;;;9.20;99.90;;;;;;5059676;28;20035;-83
2023/12/23 02:15:53;;;;;;;7.10;1.58;;;9.20;99.90;;;;;;5062119;28;20079;-83
2023/12/23 02:18:19;;;;;;;6.47;1.40;;;9.20;99.90;;;;;;5065192;28;20415;-82
2023/12/23 02:20:49;;;;;;;7.30;1.50;;;9.20;99.90;;;;;;5063341;28;20032;-83
2023/12/23 02:23:15;;;;;;;5.97;1.05;;;9.20;99.90;;;;;;5063024;28;20036;-83
2023/12/23 02:25:41;;;;;;;4.57;1.27;;;9.30;99.90;;;;;;5060225;28;20538;-82
2023/12/23 02:28:09;;;;;;;8.70;1.63;;;9.30;99.90;;;;;;5062047;28;20055;-83
2023/12/23 02:30:39;;;;;;;9.27;1.42;;;9.30;99.90;;;;;;5080552;28;20101;-83
2023/12/23 02:33:04;;;;;;;9.02;1.40;;;9.30;99.90;;;;;;5080494;28;20012;-82
2023/12/23 02:35:30;;;;;;;5.93;1.35;;;9.30;99.90;;;;;;5079858;28;20082;-82
2023/12/23 02:37:56;;;;;;;6.07;1.80;;;9.40;99.90;;;;;;5079689;28;20025;-83
2023/12/23 02:40:21;;;;;;;6.05;1.20;;;9.40;99.90;;;;;;5063243;28;20209;-83
2023/12/23 02:42:47;;;;;;;4.10;1.15;;;9.30;99.90;;;;;;5059202;28;20037;-83
2023/12/23 02:45:13;;;;;;;5.55;1.13;;;9.40;99.90;;;;;;5062522;28;20028;-83
2023/12/23 02:47:38;;;;;;;8.95;1.90;;;9.40;99.90;;;;;;5064298;28;20476;-83
2023/12/23 02:50:04;;;;;;;9.05;1.50;;;9.50;99.90;;;;;;5066553;28;20040;-83
2023/12/23 02:52:30;;;;;;;3.25;1.50;;;9.50;99.90;;;;;;5064470;28;20033;-83
2023/12/23 02:54:56;;;;;;;9.30;1.77;;;9.50;99.90;;;;;;5057723;28;20602;-83
2023/12/23 02:57:21;;;;;;;6.75;1.92;;;9.60;99.90;;;;;;5057329;28;20040;-83
2023/12/23 02:59:47;;;;;;;6.88;1.75;;;9.70;99.90;;;;;;5060239;28;20032;-83
2023/12/23 03:02:12;;;;;;;8.75;1.50;;;9.70;99.90;;;;;;5059688;28;20024;-83
2023/12/23 03:04:39;;;;;;;8.25;1.45;;;9.70;99.90;;;;;;5064356;28;20021;-83
2023/12/23 03:07:05;;;;;;;6.47;1.10;;;9.70;99.90;;;;;;5064991;28;20096;-83
2023/12/23 03:09:31;;;;;;;6.47;1.10;;;9.80;99.90;;;;;;5065665;28;20752;-83
2023/12/23 03:11:56;;;;;;;5.80;1.50;;;9.80;99.90;;;;;;5061244;28;20480;-83
2023/12/23 03:14:22;;;;;;;8.23;1.40;;;9.80;99.90;;;;;;5064387;28;20036;-83
2023/12/23 03:16:48;;;;;;;9.40;2.20;;;9.80;99.90;;;;;;5064892;28;20039;-81
2023/12/23 03:19:13;;;;;;;6.85;1.33;;;9.80;99.90;;;;;;5061024;28;20115;-83
2023/12/23 03:21:45;;;;;;;5.03;1.50;;;9.80;99.90;;;;;;5058470;28;20033;-83
2023/12/23 03:24:11;;;;;;;4.75;1.20;;;9.80;99.90;;;;;;5059135;28;20051;-83
2023/12/23 03:26:38;;;;;;;8.15;1.73;;;9.80;99.90;;;;;;5057134;28;20021;-83
2023/12/23 03:29:05;;;;;;;2.85;1.55;;;9.70;99.90;;;;;;5062854;28;20082;-83
2023/12/23 03:31:32;;;;;;;7.30;1.55;;;9.70;99.90;;;;;;5066449;28;20131;-83
2023/12/23 03:33:59;;;;;;;6.40;1.88;;;9.70;99.90;;;;;;5064907;28;20400;-83
2023/12/23 03:36:25;;;;;;;8.25;1.60;;;9.70;99.90;;;;;;5065084;28;20034;-83
2023/12/23 03:38:50;;;;;;;5.80;1.55;;;9.70;99.90;;;;;;5064139;28;20029;-83
2023/12/23 03:41:16;;;;;;;5.93;1.20;;;9.70;99.90;;;;;;5059879;28;20037;-83
2023/12/23 03:43:41;;;;;;;6.47;1.35;;;9.70;99.90;;;;;;5058616;28;20086;-83
2023/12/23 03:46:08;;;;;;;5.38;1.40;;;9.70;99.90;;;;;;5060354;28;20115;-83
2023/12/23 03:48:33;;;;;;;3.35;1.13;;;9.80;99.90;;;;;;5063999;28;20151;-83
2023/12/23 03:50:59;;;;;;;5.50;1.42;;;9.80;99.90;;;;;;5060860;28;20139;-83
2023/12/23 03:53:24;;;;;;;5.97;1.60;;;9.70;99.90;;;;;;5058378;28;20133;-83
2023/12/23 03:55:50;;;;;;;6.88;1.48;;;9.80;99.90;;;;;;5057548;28;20029;-83
2023/12/23 03:58:16;;;;;;;4.15;1.42;;;9.90;99.90;;;;;;5062621;28;20087;-83
2023/12/23 04:00:41;;;;;;;7.53;1.40;;;9.90;99.90;;;;;;5058997;28;20037;-83
2023/12/23 04:03:07;;;;;;;8.63;1.52;;;9.80;99.90;;;;;;5060583;28;20079;-83
2023/12/23 04:05:32;;;;;;;6.65;1.80;;;9.90;99.90;;;;;;5063543;28;20446;-83
2023/12/23 04:07:58;;;;;;;4.10;1.60;;;9.80;99.90;;;;;;5062945;28;20531;-83
2023/12/23 04:10:24;;;;;;;7.50;2.08;;;9.80;99.90;;;;;;5059691;28;20036;-83
2023/12/23 04:12:50;;;;;;;8.68;1.92;;;9.70;99.90;;;;;;5061446;28;20055;-82
2023/12/23 04:15:16;;;;;;;7.72;2.40;;;9.70;99.90;;;;;;5065162;28;20417;-83
2023/12/23 04:17:42;;;;;;;10.23;1.83;;;9.60;99.90;;;;;;5067451;28;20123;-82
2023/12/23 04:20:08;;;;;;;6.50;1.80;;;9.50;99.90;;;;;;5066596;28;20043;-82
2023/12/23 04:22:34;;;;;;;6.65;1.85;;;9.50;99.90;;;;;;5066612;28;20047;-82
2023/12/23 04:25:00;;;;;;;8.98;1.88;;;9.50;99.90;;;;;;5062846;28;20028;-82
2023/12/23 04:27:26;;;;;;;8.18;1.85;;;9.40;99.90;;;;;;5056436;28;20112;-82
2023/12/23 04:29:51;;;;;;;5.97;1.85;;;9.50;99.90;;;;;;5063650;28;20326;-82
2023/12/23 04:32:17;;;;;;;4.35;1.60;;;9.50;99.90;;;;;;5063490;28;21123;-82
2023/12/23 04:34:43;;;;;;;4.78;1.80;;;9.50;99.90;;;;;;5064099;28;20028;-83
2023/12/23 04:37:08;;;;;;;6.22;1.60;;;9.50;99.90;;;;;;5064432;28;20040;-82
2023/12/23 04:39:34;;;;;;;8.63;1.85;;;9.50;99.90;;;;;;5061112;28;20461;-82
2023/12/23 04:41:59;;;;;;;8.25;1.85;;;9.60;99.90;;;;;;5059686;28;20082;-82
2023/12/23 04:44:27;;;;;;;5.63;1.60;;;9.60;99.90;;;;;;5057478;28;20469;-82
2023/12/23 04:46:53;;;;;;;8.25;1.58;;;9.70;99.90;;;;;;5063261;28;20032;-82
2023/12/23 04:49:19;;;;;;;8.85;1.45;;;9.70;99.90;;;;;;5074644;28;20424;-82
2023/12/23 04:51:44;;;;;;;6.15;1.60;;;9.80;99.90;;;;;;5077046;28;20032;-82
2023/12/23 04:54:11;;;;;;;7.40;1.45;;;9.80;99.90;;;;;;5081793;28;20032;-82
2023/12/23 04:56:37;;;;;;;4.95;1.50;;;9.90;99.90;;;;;;5080831;28;20025;-82
2023/12/23 04:59:03;;;;;;;4.80;1.58;;;10.00;99.90;;;;;;5067237;28;20233;-82
2023/12/23 05:01:29;;;;;;;5.55;1.40;;;10.00;99.90;;;;;;5061619;28;20021;-82
2023/12/23 05:03:55;;;;;;;6.90;1.42;;;10.10;99.90;;;;;;5061164;28;20035;-82
2023/12/23 05:06:21;;;;;;;6.68;1.65;;;10.20;99.90;;;;;;5062319;28;20288;-82
2023/12/23 05:08:47;;;;;;;5.88;1.45;;;10.20;99.90;;;;;;5063513;28;20017;-82
2023/12/23 05:11:13;;;;;;;9.02;1.65;;;10.20;99.90;;;;;;5057798;28;20033;-82
2023/12/23 05:13:38;;;;;;;6.90;2.05;;;10.30;99.90;;;;;;5066626;28;20518;-82
2023/12/23 05:16:04;;;;;;;6.20;1.42;;;10.30;99.90;;;;;;5062670;28;20036;-82
2023/12/23 05:18:30;;;;;;;7.05;1.30;;;10.30;99.90;;;;;;5067057;28;20056;-83
2023/12/23 05:20:55;;;;;;;2.50;1.05;;;10.30;99.90;;;;;;5061197;28;20496;-82
2023/12/23 05:23:21;;;;;;;5.82;2.45;;;10.30;99.90;;;;;;5067406;28;20024;-82
2023/12/23 05:25:47;;;;;;;5.60;1.05;;;10.40;99.90;;;;;;5065270;28;20021;-82
2023/12/23 05:28:12;;;;;;;8.52;1.50;;;10.40;99.90;;;;;;5065421;28;20439;-82
2023/12/23 05:30:38;;;;;;;7.97;1.65;;;10.40;99.90;;;;;;5066281;28;20379;-83
2023/12/23 05:33:04;;;;;;;3.67;1.25;;;10.40;99.90;;;;;;5068263;28;20472;-82
2023/12/23 05:35:30;;;;;;;4.60;0.98;;;10.30;99.90;;;;;;5067820;28;20162;-82
2023/12/23 05:37:55;;;;;;;3.75;1.10;;;10.40;99.90;;;;;;5061451;28;20107;-82
2023/12/23 05:40:21;;;;;;;5.78;1.00;;;10.40;99.90;;;;;;5067952;28;20040;-82
2023/12/23 05:42:47;;;;;;;6.75;1.67;;;10.50;99.90;;;;;;5064671;28;20024;-82
2023/12/23 05:45:14;;;;;;;5.15;1.27;;;10.50;99.90;;;;;;5063167;28;20090;-83
2023/12/23 05:47:39;;;;;;;4.25;1.10;;;10.60;99.90;;;;;;5068381;28;20433;-82
2023/12/23 05:50:06;;;;;;;6.38;1.15;;;10.60;99.90;;;;;;5067531;28;20107;-82
2023/12/23 05:52:32;;;;;;;2.65;0.88;;;10.60;99.90;;;;;;5061133;28;20032;-82
2023/12/23 05:54:57;;;;;;;4.65;1.00;;;10.60;99.90;;;;;;5062563;28;20545;-83
2023/12/23 05:57:23;;;;;;;5.70;1.15;;;10.50;99.90;;;;;;5065535;28;20067;-82
2023/12/23 05:59:48;;;;;;;4.70;1.30;;;10.60;99.90;;;;;;5066417;28;20080;-82
2023/12/23 06:02:14;;;;;;;6.18;1.10;;;10.50;99.90;;;;;;5064626;28;20025;-82
2023/12/23 06:04:40;;;;;;;5.93;0.88;;;10.60;99.90;;;;;;5066722;28;20091;-82
2023/12/23 06:07:05;;;;;;;6.68;2.00;;;10.60;99.90;;;;;;5067461;28;20020;-82
2023/12/23 06:09:31;;;;;;;6.30;1.50;;;10.60;99.90;;;;;;5062606;28;20040;-82
2023/12/23 06:11:56;;;;;;;5.05;1.10;;;10.50;99.90;;;;;;5063641;28;20142;-82
2023/12/23 06:14:22;;;;;;;4.88;1.13;;;10.60;99.90;;;;;;5063702;28;20037;-82
2023/12/23 06:16:48;;;;;;;5.20;1.05;;;10.70;99.90;;;;;;5064212;28;20497;-82
2023/12/23 06:19:14;;;;;;;5.93;1.30;;;10.70;99.90;;;;;;5066037;28;20037;-82
2023/12/23 06:21:45;;;;;;;4.05;0.90;;;10.70;99.90;;;;;;5066387;28;20029;-82
2023/12/23 06:24:11;;;;;;;6.15;1.00;;;10.80;99.90;;;;;;5062856;28;20029;-81
2023/12/23 06:26:37;;;;;;;4.05;0.80;;;10.80;99.90;;;;;;5061518;28;20024;-81
2023/12/23 06:29:03;;;;;;;4.53;1.60;;;10.80;99.90;;;;;;5065016;28;20404;-82
2023/12/23 06:31:29;;;;;;;3.92;0.98;;;10.80;99.90;;;;;;5066195;28;20059;-82
2023/12/23 06:33:54;;;;;;;6.72;1.23;;;10.80;99.90;;;;;;5067532;28;20108;-82
2023/12/23 06:36:20;;;;;;;4.63;1.20;;;10.80;99.90;;;;;;5065240;28;20068;-82
2023/12/23 06:38:45;;;;;;;4.68;1.77;;;10.80;99.90;;;;;;5059874;28;20119;-81
2023/12/23 06:41:12;;;;;;;8.05;1.25;;;10.70;99.90;;;;;;5065428;28;20407;-82
2023/12/23 06:43:38;;;;;;;4.47;0.80;;;10.80;99.90;;;;;;5063230;28;20067;-83
2023/12/23 06:46:04;;;;;;;3.40;0.70;;;10.70;99.90;;;;;;5062126;28;20782;-82
2023/12/23 06:48:29;;;;;;;3.40;0.85;;;10.80;99.90;;;;;;5066753;28;20560;-82
2023/12/23 06:50:55;;;;;;;5.30;0.90;;;10.70;99.90;;;;;;5064962;28;20357;-82
2023/12/23 06:53:20;;;;;;;2.97;1.00;;;10.70;99.90;;;;;;5064440;28;20435;-82
2023/12/23 06:55:46;;;;;;;5.35;0.80;;;10.70;99.90;;;;;;5067241;28;20028;-82
2023/12/23 06:58:12;;;;;;;4.45;0.90;;;10.60;99.90;;;;;;5064472;28;20400;-82
2023/12/23 07:00:38;;;;;;;6.95;1.73;;;10.60;99.90;;;;;;5077731;28;20068;-82
2023/12/23 07:03:06;;;;;;;3.60;0.90;;;10.50;99.90;;;;;;5088332;28;20035;-82
2023/12/23 07:05:31;;;;;;;7.13;1.20;;;10.50;99.90;;;;;;5072298;28;20036;-83
2023/12/23 07:07:57;;;;;;;4.22;0.80;;;10.40;99.90;;;;;;5076570;28;20039;-81
2023/12/23 07:10:23;;;;;;;2.72;0.95;;;10.50;99.90;;;;;;5073956;28;20043;-82
2023/12/23 07:12:49;;;;;;;4.35;0.65;;;10.50;99.90;;;;;;5071329;28;20089;-82
2023/12/23 07:15:14;;;;;;;4.80;0.95;;;10.50;99.90;;;;;;5072098;28;20067;-82
2023/12/23 07:17:40;;;;;;;5.95;1.00;;;10.50;99.90;;;;;;5068998;28;20062;-81
2023/12/23 07:20:08;;;;;;;3.97;0.80;;;10.50;99.90;;;;;;5066060;28;20032;-82
2023/12/23 07:22:33;;;;;;;2.63;0.82;;;10.60;99.90;;;;;;5065928;28;20033;-82
2023/12/23 07:24:59;;;;;;;3.78;0.85;;;10.50;99.90;;;;;;5065563;28;20119;-82
2023/12/23 07:27:25;;;;;;;8.00;1.33;;;10.50;99.90;;;;;;5065616;28;20024;-82
2023/12/23 07:29:51;;;;;;;5.00;1.00;;;10.50;99.90;;;;;;5064453;28;20524;-82
2023/12/23 07:32:17;;;;;;;6.65;0.90;;;10.40;99.90;;;;;;5065932;28;20032;-83
2023/12/23 07:34:44;;;;;;;8.35;1.10;;;10.40;99.90;;;;;;5062163;28;20032;-82
2023/12/23 07:37:10;;;;;;;5.38;1.10;;;10.30;99.90;;;;;;5064537;28;20202;-82
2023/12/23 07:39:35;;;;;;;2.85;0.90;;;10.40;99.90;;;;;;5062970;28;20070;-82
2023/12/23 07:42:01;;;;;;;5.43;1.25;;;10.30;99.90;;;;;;5065246;28;20117;-82
2023/12/23 07:44:27;;;;;;;3.97;0.88;;;10.40;99.90;;;;;;5063464;28;20020;-82
2023/12/23 07:46:52;;;;;;;5.85;1.10;;;10.40;99.90;;;;;;5066305;28;20418;-82
2023/12/23 07:49:18;;;;;;;4.60;1.40;;;10.30;99.90;;;;;;5061183;28;20067;-82
2023/12/23 07:51:43;;;;;;;7.25;2.35;;;10.30;99.90;;;;;;5062315;28;20162;-82
2023/12/23 07:54:09;;;;;;;3.88;1.00;;;10.30;99.90;;;;;;5066315;28;20108;-81
2023/12/23 07:56:34;;;;;;;12.48;1.08;;;10.30;99.90;;;;;;5065049;28;20725;-82
2023/12/23 07:59:00;;;;;;;7.38;0.90;;;10.40;99.90;;;;;;5062889;28;20032;-81
2023/12/23 08:01:26;;;;;;;6.47;1.00;;;10.30;99.90;;;;;;5063331;28;20032;-82
2023/12/23 08:03:52;;;;;;;5.75;1.05;;;10.30;99.90;;;;;;5060713;28;20032;-82
2023/12/23 08:06:18;;;;;;;4.55;1.13;;;10.30;99.90;;;;;;5058722;28;20035;-82
2023/12/23 08:08:44;;;;;;;4.90;1.00;;;10.30;99.90;;;;;;5062641;28;20598;-82
2023/12/23 08:11:10;;;;;;;4.07;1.05;;;10.40;99.90;;;;;;5063779;28;20419;-82
2023/12/23 08:13:36;;;;;;;5.82;1.42;;;10.40;99.90;;;;;;5060248;28;20033;-82
2023/12/23 08:16:02;;;;;;;4.93;1.50;;;10.40;99.90;;;;;;5057336;28;20043;-82
2023/12/23 08:18:29;;;;;;;6.72;1.48;;;10.50;99.90;;;;;;5060973;28;20526;-82
2023/12/23 08:20:55;;;;;;;3.95;1.20;;;10.60;99.90;;;;;;5064755;28;20111;-82
2023/12/23 08:23:20;;;;;;;6.68;1.42;;;10.50;99.90;;;;;;5061606;28;20162;-82
2023/12/23 08:25:47;;;;;;;6.43;1.10;;;10.50;99.90;;;;;;5066318;28;20472;-81
2023/12/23 08:28:13;;;;;;;6.80;1.05;;;10.60;99.90;;;;;;5064372;28;20043;-82
2023/12/23 08:30:40;;;;;;;3.92;1.30;;;10.70;99.90;;;;;;5062191;28;20024;-83
2023/12/23 08:33:06;;;;;;;2.78;1.00;;;10.70;99.90;;;;;;5062825;28;20519;-82
2023/12/23 08:35:31;;;;;;;7.47;1.00;;;10.80;99.90;;;;;;5062662;28;20033;-82
2023/12/23 08:37:58;;;;;;;4.45;0.95;;;10.90;99.90;;;;;;5061714;28;20032;-82
2023/12/23 08:40:24;;;;;;;5.95;1.13;;;10.90;99.90;;;;;;5064745;28;20052;-83
2023/12/23 08:42:50;;;;;;;9.52;1.10;;;11.00;99.90;;;;;;5062866;28;20032;-82
2023/12/23 08:45:17;;;;;;;3.67;0.82;;;11.00;99.90;;;;;;5059828;28;20029;-82
2023/12/23 08:47:43;;;;;;;3.85;0.90;;;11.00;99.90;;;;;;5065630;28;20030;-82
2023/12/23 08:50:09;;;;;;;3.00;1.00;;;11.00;99.90;;;;;;5066067;28;20043;-82
2023/12/23 08:52:35;;;;;;;5.13;1.30;;;11.10;99.90;;;;;;5062409;28;20054;-82
2023/12/23 08:55:01;;;;;;;4.72;0.90;;;11.10;99.90;;;;;;5063542;28;20033;-82
2023/12/23 08:57:27;;;;;;;4.88;0.90;;;11.10;99.90;;;;;;5062022;28;20123;-81
2023/12/23 08:59:53;;;;;;;5.45;1.17;;;11.20;99.60;;;;;;5062030;28;20108;-83
2023/12/23 09:02:19;;;;;;;6.32;0.90;;;11.20;99.30;;;;;;5061579;28;20033;-83
2023/12/23 09:04:44;;;;;;;3.58;0.70;;;11.20;99.20;;;;;;5061424;28;20025;-82
2023/12/23 09:07:10;;;;;;;4.55;0.90;;;11.20;99.20;;;;;;5061568;28;20605;-81
2023/12/23 09:09:35;;;;;;;4.30;1.10;;;11.20;99.10;;;;;;5065077;28;20444;-82
2023/12/23 09:12:01;;;;;;;7.05;0.93;;;11.30;99.40;;;;;;5060933;28;20033;-81
2023/12/23 09:14:27;;;;;;;3.60;0.77;;;11.30;99.50;;;;;;5055462;28;20440;-80
2023/12/23 09:16:53;;;;;;;8.15;1.00;;;11.20;99.90;;;;;;5061901;28;20032;-82
2023/12/23 09:19:18;;;;;;;3.53;0.80;;;11.20;99.90;;;;;;5063474;28;20557;-82
2023/12/23 09:21:44;;;;;;;5.95;1.15;;;11.20;99.90;;;;;;5062067;28;20036;-82
2023/12/23 09:24:09;;;;;;;3.58;0.73;;;11.30;99.10;;;;;;5061344;28;20672;-82
2023/12/23 09:26:35;;;;;;;5.28;0.98;;;11.40;97.40;;;;;;5058732;28;20459;-82
2023/12/23 09:29:01;;;;;;;2.25;0.80;;;11.50;97.00;;;;;;5061849;28;20056;-83
2023/12/23 09:31:27;;;;;;;3.17;0.90;;;11.80;95.60;;;;;;5079582;28;20028;-82
2023/12/23 09:33:53;;;;;;;4.07;0.70;;;12.00;94.30;;;;;;5077181;28;20021;-81
2023/12/23 09:36:19;;;;;;;3.70;0.80;;;12.30;91.30;;;;;;5076532;28;20059;-81
2023/12/23 09:38:44;;;;;;;2.72;0.70;;;12.80;89.40;;;;;;5080839;28;20040;-82
2023/12/23 09:41:10;;;;;;;3.10;0.77;;;13.10;86.90;;;;;;5067998;28;20063;-83
2023/12/23 09:43:35;;;;;;;3.45;0.77;;;13.00;84.60;;;;;;5057837;28;20482;-81
2023/12/23 09:46:03;;;;;;;3.50;0.60;;;12.60;87.60;;;;;;5061324;28;20033;-82
2023/12/23 09:48:29;;;;;;;2.28;0.68;;;12.40;89.40;;;;;;5066880;28;20032;-84
2023/12/23 09:50:55;;;;;;;2.80;0.70;;;12.10;91.40;;;;;;5059958;28;20037;-83
2023/12/23 09:53:22;;;;;;;2.70;0.70;;;11.90;92.30;;;;;;5060286;28;20086;-83
2023/12/23 09:55:47;;;;;;;1.58;0.75;;;11.80;93.20;;;;;;5064127;28;20031;-81
2023/12/23 09:58:13;;;;;;;2.67;0.57;;;11.80;93.10;;;;;;5057639;28;20668;-83
2023/12/23 10:00:39;;;;;;;4.60;1.20;;;11.70;94.60;;;;;;5063961;28;20040;-83
2023/12/23 10:03:06;;;;;;;3.13;0.60;;;11.70;94.10;;;;;;5068619;28;20020;-81
2023/12/23 10:05:32;;;;;;;2.80;0.73;;;11.70;94.20;;;;;;5067097;28;20024;-82
2023/12/23 10:07:58;;;;;;;3.85;1.00;;;11.70;95.20;;;;;;5067233;28;20048;-83
2023/12/23 10:10:25;;;;;;;4.47;1.50;;;11.70;95.10;;;;;;5065427;28;20127;-81
2023/12/23 10:12:52;;;;;;;3.42;1.70;;;11.70;95.00;;;;;;5062555;28;20066;-82
2023/12/23 10:15:18;;;;;;;2.78;1.00;;;11.80;95.20;;;;;;5068056;28;20034;-82
2023/12/23 10:17:44;;;;;;;2.55;0.70;;;12.00;94.00;;;;;;5066042;28;20280;-82
2023/12/23 10:20:12;;;;;;;3.00;0.70;;;12.00;93.10;;;;;;5066260;28;20174;-82
2023/12/23 10:22:37;;;;;;;3.85;0.70;;;11.90;93.20;;;;;;5053779;28;20592;-82
2023/12/23 10:25:03;;;;;;;1.65;0.70;;;12.00;93.00;;;;;;5065242;28;20037;-83
2023/12/23 10:27:33;;;;;;;1.83;0.57;;;12.10;93.50;;;;;;5065367;28;20082;-83
2023/12/23 10:29:59;;;;;;;2.40;0.57;;;12.20;92.50;;;;;;5061258;28;20031;-83
2023/12/23 10:32:35;;;;;;;2.15;0.52;;;12.60;90.70;;;;;;5066274;28;20029;-81
2023/12/23 10:35:02;;;;;;;3.10;0.60;;;12.80;88.20;;;;;;5065181;28;20560;-83
2023/12/23 10:37:29;;;;;;;1.63;0.50;;;12.90;87.50;;;;;;5064233;28;20033;-83
2023/12/23 10:39:59;;;;;;;1.13;0.47;;;12.80;89.30;;;;;;5066867;28;20097;-81
2023/12/23 10:42:25;;;;;;;3.63;0.90;;;12.40;90.40;;;;;;5063869;28;20029;-82
2023/12/23 10:44:52;;;;;;;5.63;0.60;;;12.20;92.70;;;;;;5061613;28;20036;-82
2023/12/23 10:47:17;;;;;;;2.47;0.50;;;12.10;92.80;;;;;;5066509;28;20016;-82
2023/12/23 10:49:45;;;;;;;2.35;0.52;;;12.10;94.70;;;;;;5063049;28;20151;-82
2023/12/23 10:52:13;;;;;;;1.38;0.35;;;12.00;94.90;;;;;;5060691;28;20075;-83
2023/12/23 10:54:39;;;;;;;2.88;0.73;;;11.80;95.60;;;;;;5062334;28;20024;-81
2023/12/23 10:57:05;;;;;;;2.00;0.50;;;11.80;96.20;;;;;;5066717;28;20036;-83
2023/12/23 10:59:31;;;;;;;3.78;0.50;;;11.90;96.40;;;;;;5063647;28;20032;-83
2023/12/23 11:01:57;;;;;;;2.13;0.70;;;11.90;96.20;;;;;;5063445;28;20424;-83
2023/12/23 11:04:25;;;;;;;5.55;0.63;;;11.90;96.30;;;;;;5066690;28;20219;-83
2023/12/23 11:06:53;;;;;;;2.25;0.70;;;11.90;95.90;;;;;;5064474;28;20025;-81
2023/12/23 11:09:20;;;;;;;2.80;0.70;;;12.10;95.00;;;;;;5061805;28;20119;-83
2023/12/23 11:11:47;;;;;;;3.20;0.90;;;12.20;93.20;;;;;;5061995;28;20034;-83
2023/12/23 11:14:13;;;;;;;3.83;0.70;;;12.20;93.40;;;;;;5062971;28;20086;-81
2023/12/23 11:16:39;;;;;;;5.18;0.60;;;12.50;92.40;;;;;;5064366;28;20033;-82
2023/12/23 11:19:05;;;;;;;2.95;1.00;;;12.40;91.70;;;;;;5062441;28;20024;-81
2023/12/23 11:21:34;;;;;;;1.63;0.45;;;12.40;92.20;;;;;;5058105;28;20029;-81
2023/12/23 11:24:00;;;;;;;3.35;1.00;;;12.50;91.10;;;;;;5064973;28;20050;-82
2023/12/23 11:26:42;;;;;;;3.28;0.90;;;12.70;90.80;;;;;;5063472;28;20021;-83
2023/12/23 11:29:11;;;;;;;3.75;0.80;;;12.70;90.40;;;;;;5063517;28;20579;-83
2023/12/23 11:31:37;;;;;;;2.35;0.73;;;12.60;90.30;;;;;;5065666;28;20141;-82
2023/12/23 11:34:13;;;;;;;2.53;0.70;;;12.40;91.20;;;;;;5070347;28;20484;-82
2023/12/23 11:36:40;;;;;;;4.63;0.65;;;12.40;92.50;;;;;;5072726;28;20086;-82
2023/12/23 11:39:06;;;;;;;3.05;0.68;;;12.50;91.40;;;;;;5089935;28;20092;-84
2023/12/23 11:41:33;;;;;;;6.03;1.50;;;12.60;91.40;;;;;;5087279;28;20037;-83
2023/12/23 11:43:59;;;;;;;3.97;1.08;;;12.50;91.00;;;;;;5067164;28;20048;-83
2023/12/23 11:46:25;;;;;;;3.10;1.08;;;12.60;91.40;;;;;;5069160;28;20524;-83
2023/12/23 11:48:51;;;;;;;3.47;0.80;;;12.50;91.00;;;;;;5082322;28;20039;-82
2023/12/23 11:51:16;;;;;;;2.60;1.45;;;12.50;92.10;;;;;;5083205;28;20036;-81
2023/12/23 11:53:43;;;;;;;1.75;0.80;;;12.30;91.40;;;;;;5078286;28;20119;-83
2023/12/23 11:56:09;;;;;;;2.45;0.95;;;12.20;91.70;;;;;;5078068;28;20050;-82
2023/12/23 11:58:35;;;;;;;4.65;0.80;;;12.20;92.60;;;;;;5072179;28;20121;-82
2023/12/23 12:01:01;;;;;;;6.90;2.15;;;12.20;92.90;;;;;;5070881;28;20035;-83
2023/12/23 12:03:26;;;;;;;3.33;1.08;;;12.20;92.80;;;;;;5067511;28;20020;-82
2023/12/23 12:05:56;;;;;;;4.72;1.50;;;12.20;92.50;;;;;;5065841;28;20021;-82
2023/12/23 12:08:22;;;;;;;6.22;2.33;;;12.10;90.90;;;;;;5057544;28;20116;-82
2023/12/23 12:10:48;;;;;;;11.07;3.65;;;12.10;91.60;;;;;;5062744;28;20104;-82
2023/12/23 12:13:13;;;;;;;21.92;8.55;;;12.10;91.80;;;;;;5065490;28;20032;-82
2023/12/23 12:15:41;;;;;;;3.70;1.40;;;12.10;92.10;;;;;;5066068;28;20563;-81
2023/12/23 12:18:07;;;;;;;5.50;1.50;;;12.10;91.60;;;;;;5065317;28;20027;-83
2023/12/23 12:20:33;;;;;;;5.50;1.40;;;12.20;91.30;;;;;;5063819;28;20031;-82
2023/12/23 12:23:01;;;;;;;5.75;1.17;;;12.30;91.30;;;;;;5060774;28;20040;-82
2023/12/23 12:25:28;;;;;;;4.07;0.50;;;12.40;90.50;;;;;;5061077;28;20029;-82
2023/12/23 12:27:54;;;;;;;2.65;1.10;;;12.50;90.10;;;;;;5064910;28;20079;-82
2023/12/23 12:30:20;;;;;;;4.75;2.38;;;12.40;90.70;;;;;;5065287;28;20192;-82
2023/12/23 12:32:47;;;;;;;6.65;1.98;;;12.30;92.30;;;;;;5060031;28;20492;-82
2023/12/23 12:35:13;;;;;;;4.70;1.20;;;12.30;93.20;;;;;;5061641;28;20032;-82
2023/12/23 12:37:40;;;;;;;6.10;1.52;;;12.20;92.10;;;;;;5065595;28;20548;-82
2023/12/23 12:40:14;;;;;;;8.43;1.17;;;12.10;92.30;;;;;;5062418;28;20052;-82
2023/12/23 12:42:50;;;;;;;3.60;1.17;;;12.10;93.10;;;;;;5063644;28;20040;-82
2023/12/23 12:45:17;;;;;;;3.70;1.23;;;12.10;93.60;;;;;;5042720;28;20064;-82